sensor_id;sensor_type;location;lat;lon;timestamp;P1;durP1;ratioP1;P2;durP2;ratioP2
63157;SDS011;49381;49.338;8.794;2022-12-29T00:00:56;22.33;;;13.95;;
63157;SDS011;49381;49.338;8.794;2022-12-29T00:02:59;22.05;;;12.68;;
63157;SDS011;49381;49.338;8.794;2022-12-29T00:05:01;25.35;;;14.07;;
63157;SDS011;49381;49.338;8.794;2022-12-29T00:07:02;22.27;;;14.13;;
63157;SDS011;49381;49.338;8.794;2022-12-29T00:09:02;22.90;;;14.60;;
63157;SDS011;49381;49.338;8.794;2022-12-29T00:11:03;24.63;;;14.88;;
63157;SDS011;49381;49.338;8.794;2022-12-29T00:13:03;24.88;;;15.00;;
63157;SDS011;49381;49.338;8.794;2022-12-29T00:15:04;28.27;;;14.30;;
63157;SDS011;49381;49.338;8.794;2022-12-29T00:17:04;23.33;;;14.02;;
63157;SDS011;49381;49.338;8.794;2022-12-29T00:19:05;25.27;;;15.02;;
63157;SDS011;49381;49.338;8.794;2022-12-29T00:21:07;22.40;;;14.43;;
63157;SDS011;49381;49.338;8.794;2022-12-29T00:23:15;25.65;;;14.95;;
63157;SDS011;49381;49.338;8.794;2022-12-29T00:25:16;25.63;;;13.93;;
63157;SDS011;49381;49.338;8.794;2022-12-29T00:27:16;23.13;;;13.65;;
63157;SDS011;49381;49.338;8.794;2022-12-29T00:29:17;22.13;;;13.40;;
63157;SDS011;49381;49.338;8.794;2022-12-29T00:31:17;22.33;;;14.13;;
63157;SDS011;49381;49.338;8.794;2022-12-29T00:33:18;25.87;;;15.07;;
63157;SDS011;49381;49.338;8.794;2022-12-29T00:35:23;21.65;;;13.40;;
63157;SDS011;49381;49.338;8.794;2022-12-29T00:37:27;25.05;;;15.10;;
63157;SDS011;49381;49.338;8.794;2022-12-29T00:39:27;25.83;;;14.75;;
63157;SDS011;49381;49.338;8.794;2022-12-29T00:41:28;26.30;;;15.68;;
63157;SDS011;49381;49.338;8.794;2022-12-29T00:43:28;20.58;;;12.50;;
63157;SDS011;49381;49.338;8.794;2022-12-29T00:45:28;22.25;;;15.38;;
63157;SDS011;49381;49.338;8.794;2022-12-29T00:47:29;24.98;;;14.70;;
63157;SDS011;49381;49.338;8.794;2022-12-29T00:49:29;24.27;;;13.35;;
63157;SDS011;49381;49.338;8.794;2022-12-29T00:51:30;20.95;;;13.45;;
63157;SDS011;49381;49.338;8.794;2022-12-29T00:53:32;22.45;;;12.10;;
63157;SDS011;49381;49.338;8.794;2022-12-29T00:55:35;21.95;;;12.35;;
63157;SDS011;49381;49.338;8.794;2022-12-29T00:57:36;24.63;;;12.80;;
63157;SDS011;49381;49.338;8.794;2022-12-29T00:59:36;25.67;;;14.50;;
63157;SDS011;49381;49.338;8.794;2022-12-29T01:01:38;23.27;;;13.45;;
63157;SDS011;49381;49.338;8.794;2022-12-29T01:03:39;25.50;;;13.25;;
63157;SDS011;49381;49.338;8.794;2022-12-29T01:05:39;23.95;;;11.43;;
63157;SDS011;49381;49.338;8.794;2022-12-29T01:07:39;18.92;;;12.85;;
63157;SDS011;49381;49.338;8.794;2022-12-29T01:09:41;20.85;;;10.32;;
63157;SDS011;49381;49.338;8.794;2022-12-29T01:11:42;18.23;;;11.20;;
63157;SDS011;49381;49.338;8.794;2022-12-29T01:13:42;16.05;;;7.53;;
63157;SDS011;49381;49.338;8.794;2022-12-29T01:15:48;13.10;;;7.05;;
63157;SDS011;49381;49.338;8.794;2022-12-29T01:17:49;9.63;;;5.10;;
63157;SDS011;49381;49.338;8.794;2022-12-29T01:19:49;9.52;;;4.63;;
63157;SDS011;49381;49.338;8.794;2022-12-29T01:21:50;9.15;;;4.68;;
63157;SDS011;49381;49.338;8.794;2022-12-29T01:23:50;6.30;;;3.85;;
63157;SDS011;49381;49.338;8.794;2022-12-29T01:25:52;8.55;;;3.20;;
63157;SDS011;49381;49.338;8.794;2022-12-29T01:27:52;5.10;;;2.33;;
63157;SDS011;49381;49.338;8.794;2022-12-29T01:29:53;3.50;;;1.70;;
63157;SDS011;49381;49.338;8.794;2022-12-29T01:31:53;5.15;;;1.83;;
63157;SDS011;49381;49.338;8.794;2022-12-29T01:33:53;4.95;;;1.80;;
63157;SDS011;49381;49.338;8.794;2022-12-29T01:35:54;4.05;;;1.98;;
63157;SDS011;49381;49.338;8.794;2022-12-29T01:37:54;4.95;;;1.88;;
63157;SDS011;49381;49.338;8.794;2022-12-29T01:39:54;4.25;;;1.80;;
63157;SDS011;49381;49.338;8.794;2022-12-29T01:41:56;4.18;;;1.90;;
63157;SDS011;49381;49.338;8.794;2022-12-29T01:43:57;4.60;;;1.70;;
63157;SDS011;49381;49.338;8.794;2022-12-29T01:45:59;6.03;;;1.75;;
63157;SDS011;49381;49.338;8.794;2022-12-29T01:48:00;4.45;;;1.70;;
63157;SDS011;49381;49.338;8.794;2022-12-29T01:50:05;4.55;;;1.63;;
63157;SDS011;49381;49.338;8.794;2022-12-29T01:52:09;3.67;;;1.67;;
63157;SDS011;49381;49.338;8.794;2022-12-29T01:54:09;3.15;;;1.52;;
63157;SDS011;49381;49.338;8.794;2022-12-29T01:56:14;4.47;;;1.50;;
63157;SDS011;49381;49.338;8.794;2022-12-29T01:58:19;3.60;;;1.90;;
63157;SDS011;49381;49.338;8.794;2022-12-29T02:00:22;4.35;;;1.58;;
63157;SDS011;49381;49.338;8.794;2022-12-29T02:02:23;3.67;;;2.00;;
63157;SDS011;49381;49.338;8.794;2022-12-29T02:04:24;4.00;;;2.00;;
63157;SDS011;49381;49.338;8.794;2022-12-29T02:06:28;6.28;;;1.92;;
63157;SDS011;49381;49.338;8.794;2022-12-29T02:08:31;3.88;;;2.17;;
63157;SDS011;49381;49.338;8.794;2022-12-29T02:10:32;4.05;;;1.77;;
63157;SDS011;49381;49.338;8.794;2022-12-29T02:12:35;6.00;;;1.88;;
63157;SDS011;49381;49.338;8.794;2022-12-29T02:14:36;4.68;;;1.70;;
63157;SDS011;49381;49.338;8.794;2022-12-29T02:16:40;3.40;;;1.73;;
63157;SDS011;49381;49.338;8.794;2022-12-29T02:18:51;4.25;;;1.98;;
63157;SDS011;49381;49.338;8.794;2022-12-29T02:21:11;6.10;;;1.85;;
63157;SDS011;49381;49.338;8.794;2022-12-29T02:23:34;6.35;;;1.95;;
63157;SDS011;49381;49.338;8.794;2022-12-29T02:25:55;4.93;;;2.10;;
63157;SDS011;49381;49.338;8.794;2022-12-29T02:28:21;5.32;;;2.08;;
63157;SDS011;49381;49.338;8.794;2022-12-29T02:30:44;5.25;;;1.92;;
63157;SDS011;49381;49.338;8.794;2022-12-29T02:32:50;6.25;;;2.25;;
63157;SDS011;49381;49.338;8.794;2022-12-29T02:34:55;3.20;;;1.52;;
63157;SDS011;49381;49.338;8.794;2022-12-29T02:37:02;4.72;;;1.92;;
63157;SDS011;49381;49.338;8.794;2022-12-29T02:39:18;2.70;;;1.42;;
63157;SDS011;49381;49.338;8.794;2022-12-29T02:41:25;4.55;;;1.75;;
63157;SDS011;49381;49.338;8.794;2022-12-29T02:43:32;4.25;;;1.80;;
63157;SDS011;49381;49.338;8.794;2022-12-29T02:45:39;6.57;;;1.92;;
63157;SDS011;49381;49.338;8.794;2022-12-29T02:47:48;3.90;;;1.95;;
63157;SDS011;49381;49.338;8.794;2022-12-29T02:49:54;5.05;;;2.03;;
63157;SDS011;49381;49.338;8.794;2022-12-29T02:52:00;8.10;;;3.10;;
63157;SDS011;49381;49.338;8.794;2022-12-29T02:54:02;7.20;;;2.80;;
63157;SDS011;49381;49.338;8.794;2022-12-29T02:56:03;9.02;;;3.30;;
63157;SDS011;49381;49.338;8.794;2022-12-29T02:58:08;6.35;;;2.70;;
63157;SDS011;49381;49.338;8.794;2022-12-29T03:00:16;7.22;;;2.95;;
63157;SDS011;49381;49.338;8.794;2022-12-29T03:02:26;6.43;;;3.53;;
63157;SDS011;49381;49.338;8.794;2022-12-29T03:04:36;7.07;;;3.13;;
63157;SDS011;49381;49.338;8.794;2022-12-29T03:06:47;8.57;;;2.72;;
63157;SDS011;49381;49.338;8.794;2022-12-29T03:08:55;6.22;;;2.60;;
63157;SDS011;49381;49.338;8.794;2022-12-29T03:11:02;5.82;;;2.50;;
63157;SDS011;49381;49.338;8.794;2022-12-29T03:13:04;6.90;;;2.90;;
63157;SDS011;49381;49.338;8.794;2022-12-29T03:15:13;5.47;;;2.70;;
63157;SDS011;49381;49.338;8.794;2022-12-29T03:17:23;4.45;;;1.90;;
63157;SDS011;49381;49.338;8.794;2022-12-29T03:19:27;4.93;;;2.00;;
63157;SDS011;49381;49.338;8.794;2022-12-29T03:21:33;6.13;;;2.47;;
63157;SDS011;49381;49.338;8.794;2022-12-29T03:23:37;5.05;;;2.30;;
63157;SDS011;49381;49.338;8.794;2022-12-29T03:25:42;4.78;;;2.47;;
63157;SDS011;49381;49.338;8.794;2022-12-29T03:27:46;8.30;;;2.17;;
63157;SDS011;49381;49.338;8.794;2022-12-29T03:29:50;4.88;;;2.00;;
63157;SDS011;49381;49.338;8.794;2022-12-29T03:31:53;4.80;;;2.17;;
63157;SDS011;49381;49.338;8.794;2022-12-29T03:33:55;4.68;;;2.20;;
63157;SDS011;49381;49.338;8.794;2022-12-29T03:35:57;4.70;;;2.35;;
63157;SDS011;49381;49.338;8.794;2022-12-29T03:38:02;6.30;;;2.25;;
63157;SDS011;49381;49.338;8.794;2022-12-29T03:40:08;3.58;;;1.98;;
63157;SDS011;49381;49.338;8.794;2022-12-29T03:42:09;5.97;;;2.67;;
63157;SDS011;49381;49.338;8.794;2022-12-29T03:44:13;6.18;;;2.10;;
63157;SDS011;49381;49.338;8.794;2022-12-29T03:46:14;5.15;;;2.15;;
63157;SDS011;49381;49.338;8.794;2022-12-29T03:48:14;4.03;;;1.98;;
63157;SDS011;49381;49.338;8.794;2022-12-29T03:50:14;8.45;;;2.35;;
63157;SDS011;49381;49.338;8.794;2022-12-29T03:52:15;5.45;;;1.35;;
63157;SDS011;49381;49.338;8.794;2022-12-29T03:54:17;2.20;;;1.00;;
63157;SDS011;49381;49.338;8.794;2022-12-29T03:56:17;5.10;;;1.55;;
63157;SDS011;49381;49.338;8.794;2022-12-29T03:58:17;3.15;;;1.55;;
63157;SDS011;49381;49.338;8.794;2022-12-29T04:00:18;2.50;;;1.17;;
63157;SDS011;49381;49.338;8.794;2022-12-29T04:02:18;3.67;;;1.50;;
63157;SDS011;49381;49.338;8.794;2022-12-29T04:04:18;4.28;;;1.80;;
63157;SDS011;49381;49.338;8.794;2022-12-29T04:06:19;4.13;;;1.38;;
63157;SDS011;49381;49.338;8.794;2022-12-29T04:08:19;3.55;;;1.27;;
63157;SDS011;49381;49.338;8.794;2022-12-29T04:10:21;3.83;;;1.10;;
63157;SDS011;49381;49.338;8.794;2022-12-29T04:12:21;1.73;;;0.98;;
63157;SDS011;49381;49.338;8.794;2022-12-29T04:14:21;2.65;;;1.10;;
63157;SDS011;49381;49.338;8.794;2022-12-29T04:16:22;2.35;;;1.10;;
63157;SDS011;49381;49.338;8.794;2022-12-29T04:18:22;4.45;;;1.50;;
63157;SDS011;49381;49.338;8.794;2022-12-29T04:20:22;3.45;;;1.20;;
63157;SDS011;49381;49.338;8.794;2022-12-29T04:22:23;3.40;;;1.20;;
63157;SDS011;49381;49.338;8.794;2022-12-29T04:24:23;2.97;;;1.20;;
63157;SDS011;49381;49.338;8.794;2022-12-29T04:26:25;2.08;;;1.00;;
63157;SDS011;49381;49.338;8.794;2022-12-29T04:28:25;3.85;;;1.08;;
63157;SDS011;49381;49.338;8.794;2022-12-29T04:30:25;4.30;;;1.00;;
63157;SDS011;49381;49.338;8.794;2022-12-29T04:32:26;2.75;;;1.10;;
63157;SDS011;49381;49.338;8.794;2022-12-29T04:34:26;2.70;;;0.98;;
63157;SDS011;49381;49.338;8.794;2022-12-29T04:36:26;4.80;;;1.23;;
63157;SDS011;49381;49.338;8.794;2022-12-29T04:38:27;3.10;;;1.20;;
63157;SDS011;49381;49.338;8.794;2022-12-29T04:40:27;4.68;;;1.30;;
63157;SDS011;49381;49.338;8.794;2022-12-29T04:42:29;2.30;;;1.08;;
63157;SDS011;49381;49.338;8.794;2022-12-29T04:44:30;4.85;;;1.30;;
63157;SDS011;49381;49.338;8.794;2022-12-29T04:46:30;3.33;;;1.27;;
63157;SDS011;49381;49.338;8.794;2022-12-29T04:48:30;2.63;;;0.95;;
63157;SDS011;49381;49.338;8.794;2022-12-29T04:50:31;3.67;;;1.33;;
63157;SDS011;49381;49.338;8.794;2022-12-29T04:52:31;2.33;;;1.15;;
63157;SDS011;49381;49.338;8.794;2022-12-29T04:54:32;3.13;;;1.17;;
63157;SDS011;49381;49.338;8.794;2022-12-29T04:56:32;2.78;;;1.10;;
63157;SDS011;49381;49.338;8.794;2022-12-29T04:58:34;2.75;;;1.00;;
63157;SDS011;49381;49.338;8.794;2022-12-29T05:00:35;4.57;;;1.10;;
63157;SDS011;49381;49.338;8.794;2022-12-29T05:02:36;2.25;;;1.10;;
63157;SDS011;49381;49.338;8.794;2022-12-29T05:04:37;2.90;;;1.17;;
63157;SDS011;49381;49.338;8.794;2022-12-29T05:06:37;1.67;;;0.85;;
63157;SDS011;49381;49.338;8.794;2022-12-29T05:08:37;2.50;;;1.25;;
63157;SDS011;49381;49.338;8.794;2022-12-29T05:10:38;4.30;;;1.40;;
63157;SDS011;49381;49.338;8.794;2022-12-29T05:12:38;3.90;;;1.40;;
63157;SDS011;49381;49.338;8.794;2022-12-29T05:14:41;3.40;;;1.10;;
63157;SDS011;49381;49.338;8.794;2022-12-29T05:16:41;1.52;;;0.82;;
63157;SDS011;49381;49.338;8.794;2022-12-29T05:18:41;3.28;;;1.52;;
63157;SDS011;49381;49.338;8.794;2022-12-29T05:20:41;3.42;;;1.20;;
63157;SDS011;49381;49.338;8.794;2022-12-29T05:22:42;3.85;;;1.20;;
63157;SDS011;49381;49.338;8.794;2022-12-29T05:24:42;5.32;;;1.42;;
63157;SDS011;49381;49.338;8.794;2022-12-29T05:26:42;5.78;;;1.55;;
63157;SDS011;49381;49.338;8.794;2022-12-29T05:28:43;2.15;;;1.10;;
63157;SDS011;49381;49.338;8.794;2022-12-29T05:30:46;4.10;;;1.20;;
63157;SDS011;49381;49.338;8.794;2022-12-29T05:32:48;3.85;;;1.27;;
63157;SDS011;49381;49.338;8.794;2022-12-29T05:34:48;1.85;;;1.17;;
63157;SDS011;49381;49.338;8.794;2022-12-29T05:36:48;4.78;;;1.35;;
63157;SDS011;49381;49.338;8.794;2022-12-29T05:38:49;3.88;;;1.38;;
63157;SDS011;49381;49.338;8.794;2022-12-29T05:40:49;2.03;;;1.00;;
63157;SDS011;49381;49.338;8.794;2022-12-29T05:42:49;3.13;;;1.30;;
63157;SDS011;49381;49.338;8.794;2022-12-29T05:44:50;4.32;;;1.45;;
63157;SDS011;49381;49.338;8.794;2022-12-29T05:46:51;2.88;;;1.40;;
63157;SDS011;49381;49.338;8.794;2022-12-29T05:48:52;2.30;;;1.50;;
63157;SDS011;49381;49.338;8.794;2022-12-29T05:50:52;4.43;;;1.50;;
63157;SDS011;49381;49.338;8.794;2022-12-29T05:52:52;3.80;;;1.50;;
63157;SDS011;49381;49.338;8.794;2022-12-29T05:54:53;2.60;;;1.30;;
63157;SDS011;49381;49.338;8.794;2022-12-29T05:56:53;5.50;;;1.45;;
63157;SDS011;49381;49.338;8.794;2022-12-29T05:58:53;2.97;;;1.10;;
63157;SDS011;49381;49.338;8.794;2022-12-29T06:00:54;3.95;;;1.00;;
63157;SDS011;49381;49.338;8.794;2022-12-29T06:02:56;4.38;;;1.50;;
63157;SDS011;49381;49.338;8.794;2022-12-29T06:04:56;2.80;;;1.42;;
63157;SDS011;49381;49.338;8.794;2022-12-29T06:06:56;3.72;;;1.75;;
63157;SDS011;49381;49.338;8.794;2022-12-29T06:08:57;3.30;;;1.65;;
63157;SDS011;49381;49.338;8.794;2022-12-29T06:10:57;2.38;;;1.45;;
63157;SDS011;49381;49.338;8.794;2022-12-29T06:12:57;2.50;;;1.30;;
63157;SDS011;49381;49.338;8.794;2022-12-29T06:14:58;5.30;;;1.33;;
63157;SDS011;49381;49.338;8.794;2022-12-29T06:16:58;3.30;;;1.25;;
63157;SDS011;49381;49.338;8.794;2022-12-29T06:19:00;2.83;;;1.40;;
63157;SDS011;49381;49.338;8.794;2022-12-29T06:21:00;3.35;;;1.40;;
63157;SDS011;49381;49.338;8.794;2022-12-29T06:23:01;2.88;;;1.50;;
63157;SDS011;49381;49.338;8.794;2022-12-29T06:25:01;5.18;;;1.50;;
63157;SDS011;49381;49.338;8.794;2022-12-29T06:27:02;2.95;;;1.15;;
63157;SDS011;49381;49.338;8.794;2022-12-29T06:29:02;3.97;;;1.38;;
63157;SDS011;49381;49.338;8.794;2022-12-29T06:31:03;4.10;;;1.63;;
63157;SDS011;49381;49.338;8.794;2022-12-29T06:33:03;5.43;;;1.80;;
63157;SDS011;49381;49.338;8.794;2022-12-29T06:35:05;4.32;;;1.60;;
63157;SDS011;49381;49.338;8.794;2022-12-29T06:37:06;6.68;;;1.52;;
63157;SDS011;49381;49.338;8.794;2022-12-29T06:39:06;3.80;;;1.50;;
63157;SDS011;49381;49.338;8.794;2022-12-29T06:41:07;6.20;;;1.70;;
63157;SDS011;49381;49.338;8.794;2022-12-29T06:43:07;3.58;;;1.35;;
63157;SDS011;49381;49.338;8.794;2022-12-29T06:45:08;2.40;;;1.42;;
63157;SDS011;49381;49.338;8.794;2022-12-29T06:47:09;4.07;;;1.50;;
63157;SDS011;49381;49.338;8.794;2022-12-29T06:49:09;4.30;;;1.40;;
63157;SDS011;49381;49.338;8.794;2022-12-29T06:51:11;4.80;;;1.85;;
63157;SDS011;49381;49.338;8.794;2022-12-29T06:53:11;3.47;;;1.73;;
63157;SDS011;49381;49.338;8.794;2022-12-29T06:55:12;4.15;;;1.65;;
63157;SDS011;49381;49.338;8.794;2022-12-29T06:57:12;1.92;;;1.30;;
63157;SDS011;49381;49.338;8.794;2022-12-29T06:59:12;3.95;;;1.67;;
63157;SDS011;49381;49.338;8.794;2022-12-29T07:01:13;2.97;;;1.50;;
63157;SDS011;49381;49.338;8.794;2022-12-29T07:03:13;3.25;;;1.30;;
63157;SDS011;49381;49.338;8.794;2022-12-29T07:05:13;3.78;;;1.50;;
63157;SDS011;49381;49.338;8.794;2022-12-29T07:07:15;4.55;;;2.15;;
63157;SDS011;49381;49.338;8.794;2022-12-29T07:09:16;3.13;;;1.65;;
63157;SDS011;49381;49.338;8.794;2022-12-29T07:11:16;3.83;;;1.75;;
63157;SDS011;49381;49.338;8.794;2022-12-29T07:13:16;3.33;;;1.60;;
63157;SDS011;49381;49.338;8.794;2022-12-29T07:15:17;4.53;;;1.50;;
63157;SDS011;49381;49.338;8.794;2022-12-29T07:17:17;2.95;;;1.55;;
63157;SDS011;49381;49.338;8.794;2022-12-29T07:19:17;3.63;;;1.73;;
63157;SDS011;49381;49.338;8.794;2022-12-29T07:21:18;4.32;;;1.70;;
63157;SDS011;49381;49.338;8.794;2022-12-29T07:23:19;3.60;;;1.60;;
63157;SDS011;49381;49.338;8.794;2022-12-29T07:25:20;2.53;;;1.40;;
63157;SDS011;49381;49.338;8.794;2022-12-29T07:27:20;2.38;;;1.35;;
63157;SDS011;49381;49.338;8.794;2022-12-29T07:29:21;2.72;;;1.45;;
63157;SDS011;49381;49.338;8.794;2022-12-29T07:31:22;7.55;;;2.40;;
63157;SDS011;49381;49.338;8.794;2022-12-29T07:33:22;3.97;;;1.95;;
63157;SDS011;49381;49.338;8.794;2022-12-29T07:35:23;2.90;;;1.52;;
63157;SDS011;49381;49.338;8.794;2022-12-29T07:37:23;2.53;;;1.38;;
63157;SDS011;49381;49.338;8.794;2022-12-29T07:39:25;3.97;;;1.70;;
63157;SDS011;49381;49.338;8.794;2022-12-29T07:41:25;5.38;;;1.90;;
63157;SDS011;49381;49.338;8.794;2022-12-29T07:43:25;4.60;;;1.77;;
63157;SDS011;49381;49.338;8.794;2022-12-29T07:45:26;2.42;;;1.50;;
63157;SDS011;49381;49.338;8.794;2022-12-29T07:47:26;3.97;;;1.75;;
63157;SDS011;49381;49.338;8.794;2022-12-29T07:49:26;4.72;;;1.92;;
63157;SDS011;49381;49.338;8.794;2022-12-29T07:51:27;3.22;;;1.48;;
63157;SDS011;49381;49.338;8.794;2022-12-29T07:53:27;6.50;;;1.77;;
63157;SDS011;49381;49.338;8.794;2022-12-29T07:55:29;5.70;;;1.83;;
63157;SDS011;49381;49.338;8.794;2022-12-29T07:57:29;3.40;;;1.60;;
63157;SDS011;49381;49.338;8.794;2022-12-29T07:59:30;3.05;;;1.70;;
63157;SDS011;49381;49.338;8.794;2022-12-29T08:01:30;5.15;;;1.73;;
63157;SDS011;49381;49.338;8.794;2022-12-29T08:03:30;3.38;;;1.70;;
63157;SDS011;49381;49.338;8.794;2022-12-29T08:05:31;3.38;;;1.50;;
63157;SDS011;49381;49.338;8.794;2022-12-29T08:07:32;4.32;;;1.60;;
63157;SDS011;49381;49.338;8.794;2022-12-29T08:09:32;3.90;;;1.60;;
63157;SDS011;49381;49.338;8.794;2022-12-29T08:11:34;3.88;;;1.65;;
63157;SDS011;49381;49.338;8.794;2022-12-29T08:13:34;3.45;;;1.70;;
63157;SDS011;49381;49.338;8.794;2022-12-29T08:15:34;3.92;;;1.50;;
63157;SDS011;49381;49.338;8.794;2022-12-29T08:17:37;3.00;;;1.50;;
63157;SDS011;49381;49.338;8.794;2022-12-29T08:19:37;5.18;;;1.52;;
63157;SDS011;49381;49.338;8.794;2022-12-29T08:21:38;2.50;;;1.40;;
63157;SDS011;49381;49.338;8.794;2022-12-29T08:23:39;3.97;;;1.85;;
63157;SDS011;49381;49.338;8.794;2022-12-29T08:25:39;3.90;;;1.55;;
63157;SDS011;49381;49.338;8.794;2022-12-29T08:27:41;4.20;;;1.83;;
63157;SDS011;49381;49.338;8.794;2022-12-29T08:29:41;2.80;;;1.65;;
63157;SDS011;49381;49.338;8.794;2022-12-29T08:31:41;3.00;;;1.60;;
63157;SDS011;49381;49.338;8.794;2022-12-29T08:33:42;3.45;;;1.80;;
63157;SDS011;49381;49.338;8.794;2022-12-29T08:35:42;5.10;;;1.83;;
63157;SDS011;49381;49.338;8.794;2022-12-29T08:37:42;9.80;;;1.90;;
63157;SDS011;49381;49.338;8.794;2022-12-29T08:39:44;4.50;;;1.60;;
63157;SDS011;49381;49.338;8.794;2022-12-29T08:41:45;1.70;;;1.20;;
63157;SDS011;49381;49.338;8.794;2022-12-29T08:43:47;4.60;;;1.73;;
63157;SDS011;49381;49.338;8.794;2022-12-29T08:45:48;4.22;;;1.90;;
63157;SDS011;49381;49.338;8.794;2022-12-29T08:47:48;5.88;;;1.90;;
63157;SDS011;49381;49.338;8.794;2022-12-29T08:49:48;6.82;;;1.95;;
63157;SDS011;49381;49.338;8.794;2022-12-29T08:51:50;3.47;;;1.77;;
63157;SDS011;49381;49.338;8.794;2022-12-29T08:53:50;4.70;;;2.00;;
63157;SDS011;49381;49.338;8.794;2022-12-29T08:55:54;3.80;;;1.48;;
63157;SDS011;49381;49.338;8.794;2022-12-29T08:57:56;3.88;;;2.15;;
63157;SDS011;49381;49.338;8.794;2022-12-29T08:59:58;4.57;;;1.88;;
63157;SDS011;49381;49.338;8.794;2022-12-29T09:01:58;4.32;;;1.90;;
63157;SDS011;49381;49.338;8.794;2022-12-29T09:03:58;3.08;;;1.52;;
63157;SDS011;49381;49.338;8.794;2022-12-29T09:05:59;2.38;;;1.45;;
63157;SDS011;49381;49.338;8.794;2022-12-29T09:07:59;3.15;;;1.60;;
63157;SDS011;49381;49.338;8.794;2022-12-29T09:10:00;3.95;;;1.48;;
63157;SDS011;49381;49.338;8.794;2022-12-29T09:12:00;2.65;;;1.50;;
63157;SDS011;49381;49.338;8.794;2022-12-29T09:14:00;4.97;;;2.83;;
63157;SDS011;49381;49.338;8.794;2022-12-29T09:16:02;3.70;;;2.47;;
63157;SDS011;49381;49.338;8.794;2022-12-29T09:18:03;6.45;;;2.58;;
63157;SDS011;49381;49.338;8.794;2022-12-29T09:20:04;6.90;;;2.10;;
63157;SDS011;49381;49.338;8.794;2022-12-29T09:22:07;5.35;;;2.33;;
63157;SDS011;49381;49.338;8.794;2022-12-29T09:24:07;3.47;;;1.77;;
63157;SDS011;49381;49.338;8.794;2022-12-29T09:26:08;4.25;;;2.03;;
63157;SDS011;49381;49.338;8.794;2022-12-29T09:28:09;4.00;;;2.08;;
63157;SDS011;49381;49.338;8.794;2022-12-29T09:30:11;3.97;;;1.73;;
63157;SDS011;49381;49.338;8.794;2022-12-29T09:32:14;5.93;;;2.50;;
63157;SDS011;49381;49.338;8.794;2022-12-29T09:34:14;8.77;;;2.33;;
63157;SDS011;49381;49.338;8.794;2022-12-29T09:36:15;4.53;;;1.85;;
63157;SDS011;49381;49.338;8.794;2022-12-29T09:38:15;3.97;;;1.90;;
63157;SDS011;49381;49.338;8.794;2022-12-29T09:40:20;6.38;;;1.98;;
63157;SDS011;49381;49.338;8.794;2022-12-29T09:42:25;4.68;;;2.15;;
63157;SDS011;49381;49.338;8.794;2022-12-29T09:44:31;5.47;;;1.90;;
63157;SDS011;49381;49.338;8.794;2022-12-29T09:46:46;3.58;;;2.10;;
63157;SDS011;49381;49.338;8.794;2022-12-29T09:48:51;3.97;;;2.10;;
63157;SDS011;49381;49.338;8.794;2022-12-29T09:51:07;4.05;;;1.60;;
63157;SDS011;49381;49.338;8.794;2022-12-29T09:53:13;5.00;;;1.90;;
63157;SDS011;49381;49.338;8.794;2022-12-29T09:55:19;5.20;;;1.95;;
63157;SDS011;49381;49.338;8.794;2022-12-29T09:57:23;3.22;;;1.63;;
63157;SDS011;49381;49.338;8.794;2022-12-29T09:59:26;3.25;;;1.70;;
63157;SDS011;49381;49.338;8.794;2022-12-29T10:01:41;5.03;;;1.80;;
63157;SDS011;49381;49.338;8.794;2022-12-29T10:03:51;6.97;;;2.33;;
63157;SDS011;49381;49.338;8.794;2022-12-29T10:05:53;6.60;;;2.40;;
63157;SDS011;49381;49.338;8.794;2022-12-29T10:08:04;4.88;;;1.58;;
63157;SDS011;49381;49.338;8.794;2022-12-29T10:10:16;4.13;;;2.10;;
63157;SDS011;49381;49.338;8.794;2022-12-29T10:12:31;8.27;;;2.10;;
63157;SDS011;49381;49.338;8.794;2022-12-29T10:14:47;6.22;;;1.77;;
63157;SDS011;49381;49.338;8.794;2022-12-29T10:17:04;2.88;;;1.58;;
63157;SDS011;49381;49.338;8.794;2022-12-29T10:19:18;3.63;;;1.92;;
63157;SDS011;49381;49.338;8.794;2022-12-29T10:21:31;2.97;;;1.67;;
63157;SDS011;49381;49.338;8.794;2022-12-29T10:23:40;4.20;;;1.88;;
63157;SDS011;49381;49.338;8.794;2022-12-29T10:26:49;3.55;;;1.60;;
63157;SDS011;49381;49.338;8.794;2022-12-29T10:28:33;4.40;;;2.10;;
63157;SDS011;49381;49.338;8.794;2022-12-29T10:30:35;4.50;;;1.90;;
63157;SDS011;49381;49.338;8.794;2022-12-29T10:32:36;4.13;;;2.20;;
63157;SDS011;49381;49.338;8.794;2022-12-29T10:34:42;4.15;;;1.70;;
63157;SDS011;49381;49.338;8.794;2022-12-29T10:36:47;3.03;;;1.77;;
63157;SDS011;49381;49.338;8.794;2022-12-29T10:38:56;4.82;;;1.90;;
63157;SDS011;49381;49.338;8.794;2022-12-29T10:41:05;3.78;;;1.63;;
63157;SDS011;49381;49.338;8.794;2022-12-29T10:45:50;5.70;;;2.20;;
63157;SDS011;49381;49.338;8.794;2022-12-29T10:47:55;3.40;;;1.70;;
63157;SDS011;49381;49.338;8.794;2022-12-29T10:50:02;5.55;;;2.08;;
63157;SDS011;49381;49.338;8.794;2022-12-29T10:52:06;3.95;;;2.10;;
63157;SDS011;49381;49.338;8.794;2022-12-29T10:54:10;4.57;;;1.73;;
63157;SDS011;49381;49.338;8.794;2022-12-29T10:56:25;4.63;;;2.60;;
63157;SDS011;49381;49.338;8.794;2022-12-29T10:58:32;6.80;;;3.75;;
63157;SDS011;49381;49.338;8.794;2022-12-29T11:00:35;5.00;;;2.17;;
63157;SDS011;49381;49.338;8.794;2022-12-29T11:02:42;3.90;;;1.83;;
63157;SDS011;49381;49.338;8.794;2022-12-29T11:04:52;4.47;;;1.80;;
63157;SDS011;49381;49.338;8.794;2022-12-29T11:06:58;2.58;;;1.58;;
63157;SDS011;49381;49.338;8.794;2022-12-29T11:09:01;3.40;;;1.65;;
63157;SDS011;49381;49.338;8.794;2022-12-29T11:11:09;3.53;;;1.60;;
63157;SDS011;49381;49.338;8.794;2022-12-29T11:13:11;3.55;;;1.70;;
63157;SDS011;49381;49.338;8.794;2022-12-29T11:15:13;2.03;;;1.15;;
63157;SDS011;49381;49.338;8.794;2022-12-29T11:17:15;1.75;;;1.23;;
63157;SDS011;49381;49.338;8.794;2022-12-29T11:19:20;2.70;;;1.17;;
63157;SDS011;49381;49.338;8.794;2022-12-29T11:21:26;3.45;;;1.38;;
63157;SDS011;49381;49.338;8.794;2022-12-29T11:23:34;3.40;;;1.70;;
63157;SDS011;49381;49.338;8.794;2022-12-29T11:25:35;3.55;;;1.40;;
63157;SDS011;49381;49.338;8.794;2022-12-29T11:27:36;2.83;;;1.50;;
63157;SDS011;49381;49.338;8.794;2022-12-29T11:29:36;4.65;;;1.52;;
63157;SDS011;49381;49.338;8.794;2022-12-29T11:31:40;2.97;;;1.38;;
63157;SDS011;49381;49.338;8.794;2022-12-29T11:33:41;3.33;;;1.48;;
63157;SDS011;49381;49.338;8.794;2022-12-29T11:35:41;5.35;;;1.40;;
63157;SDS011;49381;49.338;8.794;2022-12-29T11:37:43;3.80;;;1.40;;
63157;SDS011;49381;49.338;8.794;2022-12-29T11:39:46;2.75;;;1.35;;
63157;SDS011;49381;49.338;8.794;2022-12-29T11:41:52;3.53;;;1.20;;
63157;SDS011;49381;49.338;8.794;2022-12-29T11:43:53;3.65;;;1.30;;
63157;SDS011;49381;49.338;8.794;2022-12-29T11:45:57;3.55;;;1.63;;
63157;SDS011;49381;49.338;8.794;2022-12-29T11:47:57;3.10;;;1.23;;
63157;SDS011;49381;49.338;8.794;2022-12-29T11:50:02;3.22;;;1.38;;
63157;SDS011;49381;49.338;8.794;2022-12-29T11:52:04;2.80;;;1.40;;
63157;SDS011;49381;49.338;8.794;2022-12-29T11:54:10;3.00;;;1.42;;
63157;SDS011;49381;49.338;8.794;2022-12-29T11:59:02;2.92;;;1.38;;
63157;SDS011;49381;49.338;8.794;2022-12-29T12:01:44;3.42;;;1.83;;
63157;SDS011;49381;49.338;8.794;2022-12-29T12:03:52;2.80;;;1.23;;
63157;SDS011;49381;49.338;8.794;2022-12-29T12:06:01;4.00;;;1.75;;
63157;SDS011;49381;49.338;8.794;2022-12-29T12:16:15;2.78;;;1.63;;
63157;SDS011;49381;49.338;8.794;2022-12-29T12:18:44;3.13;;;1.33;;
63157;SDS011;49381;49.338;8.794;2022-12-29T12:23:31;4.07;;;1.85;;
63157;SDS011;49381;49.338;8.794;2022-12-29T12:25:59;3.80;;;1.60;;
63157;SDS011;49381;49.338;8.794;2022-12-29T12:28:24;3.38;;;1.30;;
63157;SDS011;49381;49.338;8.794;2022-12-29T12:30:53;5.10;;;1.65;;
63157;SDS011;49381;49.338;8.794;2022-12-29T12:33:15;3.70;;;1.50;;
63157;SDS011;49381;49.338;8.794;2022-12-29T12:35:31;4.03;;;1.17;;
63157;SDS011;49381;49.338;8.794;2022-12-29T12:37:52;3.80;;;1.20;;